KUDG Airport (Darlington County) Information

FAA: UDG - ICAO: KUDG

KUDG Airport Location

State South Carolina
County Darlington
City Darlington
KUDG Airport is 9 miles north of Darlington, SC.
Latitude 34-26-57.7841N
Longitude 079-53-24.2190W
Elevation 192ft

KUDG Airport METARs

METAR KUDG 121541Z AUTO 00000KT 10SM BKN004 BKN014 OVC055 22/22 A3002 RMK AO2 LTG DSNT E AND SE TSE34RAE39 P0007
Altimeter 30.02"
Temperature 22.0°C (71.6°F)
Wind 0° at 0KT
Clouds broken at 400ft broken at 1,400ft overcast at 5,500ft
Visibility 10.0mi
Time observed: 2022-08-12T15:41:00Z

KUDG Airport Details

Status Operational
Activation October 1943
Ownership Public
Usage Public
Chart CHARLOTTE
ATC on-site No
Beacon schedule sunset-sunrise
Beacon color clear green

KUDG Airport Contacts

Owner DARLINGTON COUNTY
Owner address COUNTY COURTHOUSE, DARLINGTON, SC 29532
Owner phone (843) 393-4100
Manager WENDELL HALL
Manager address RT 3, BOX 250, CHERAW, SC 29520
Manager phone 843-537-6423

KUDG Airport (Darlington County) Radio Frequencies

KUDG (Airport) Radio Frequencies

UNICOM 123
Common traffic advisory frequency (CTAF) 123